Peniel Crossroads, South Carolina
Current Conditions -  °F | °C
As of 9:53 PM on Thursday 27 Nov 2014 (Local Time) from KFLO Reporting Station
Clear Clear  
Wind Chill: 37°   Ceiling: Unl
Heat Index: 42°   Visibility: 10mi
Dew Point: 31°   Wind: 8mph
Humidity: 65%   Direction: 340°NNW
Pressure: 30.26"   Gusts: NA
Location:  34.07°N, 79.933°W
Report Text: KFLO 280253Z AUTO 34007KT 10SM CLR 06/M01 A3026 RMK AO2 SLP246 T00561006 51020
Loading
Personal Weather Stations






























Interactive Weather Map New forecast layout! Learn more

10-Day Weather Forecast

Advertisements
Track Severe Weather on mobile